ZKEOX NZAR-NZAR

Flight info

Callsign ZKEOX
Flight time 0h 52m
Altitude 4000
Route HUNTY
Aircraft C172/L-SFG/C

Departure

Time 2026-04-26 02:24
Airport Ardmore Airport (NZAR)

Arrival

Time 2026-04-26 03:17
Airport Ardmore Airport (NZAR)
Time Latitude Longitude Altitude Speed Heading
2026-04-26 02:06 -37.03198 174.97051 111 ft 0 kts 245°
2026-04-26 02:13 -37.03213 174.97056 111 ft 6 kts 103°
2026-04-26 02:13 -37.03213 174.97076 111 ft 0 kts 84°
2026-04-26 02:13 -37.03213 174.97078 111 ft 1 kts 84°
2026-04-26 02:13 -37.03232 174.97118 111 ft 8 kts 150°
2026-04-26 02:14 -37.03266 174.97148 113 ft 5 kts 147°
2026-04-26 02:14 -37.03324 174.97198 113 ft 14 kts 140°
2026-04-26 02:14 -37.03311 174.97259 112 ft 7 kts 45°
2026-04-26 02:14 -37.03282 174.97298 112 ft 5 kts 50°
2026-04-26 02:15 -37.03256 174.97332 112 ft 6 kts 42°
2026-04-26 02:15 -37.03214 174.97386 112 ft 12 kts 46°
2026-04-26 02:15 -37.03146 174.97471 112 ft 14 kts 48°
2026-04-26 02:15 -37.03087 174.97546 112 ft 11 kts 43°
2026-04-26 02:16 -37.03034 174.97614 112 ft 10 kts 45°
2026-04-26 02:16 -37.03001 174.97654 112 ft 1 kts 38°
2026-04-26 02:16 -37.02992 174.97663 112 ft 7 kts 47°
2026-04-26 02:16 -37.02929 174.97747 112 ft 15 kts 45°
2026-04-26 02:17 -37.02872 174.97837 112 ft 12 kts 86°
2026-04-26 02:17 -37.02872 174.97935 112 ft 11 kts 94°
2026-04-26 02:17 -37.02871 174.98019 112 ft 9 kts 90°
2026-04-26 02:17 -37.02837 174.98054 111 ft 8 kts 352°
2026-04-26 02:18 -37.02797 174.98029 111 ft 5 kts 277°
2026-04-26 02:18 -37.02800 174.98014 111 ft 0 kts 226°
2026-04-26 02:22 -37.02825 174.98040 111 ft 13 kts 89°
2026-04-26 02:22 -37.02803 174.98135 111 ft 11 kts
2026-04-26 02:22 -37.02732 174.98088 112 ft 13 kts 335°
2026-04-26 02:22 -37.02666 174.98042 112 ft 9 kts 314°
2026-04-26 02:23 -37.02659 174.97987 112 ft 5 kts 230°
2026-04-26 02:23 -37.02699 174.97939 112 ft 25 kts 224°
2026-04-26 02:23 -37.02942 174.97628 123 ft 71 kts 227°
2026-04-26 02:23 -37.03355 174.97162 245 ft 88 kts 224°
2026-04-26 02:24 -37.03806 174.96621 435 ft 91 kts 229°
2026-04-26 02:24 -37.04295 174.96057 534 ft 100 kts 225°
2026-04-26 02:24 -37.04863 174.95537 695 ft 101 kts 216°
2026-04-26 02:24 -37.05449 174.95174 867 ft 91 kts 200°
2026-04-26 02:25 -37.06096 174.95126 886 ft 100 kts 183°
2026-04-26 02:25 -37.06792 174.95233 894 ft 103 kts 175°
2026-04-26 02:25 -37.07491 174.95406 942 ft 101 kts 173°
2026-04-26 02:25 -37.08171 174.95570 956 ft 98 kts 178°
2026-04-26 02:26 -37.08841 174.95720 924 ft 101 kts 175°
2026-04-26 02:26 -37.09495 174.95897 1063 ft 93 kts 174°
2026-04-26 02:26 -37.10130 174.96087 1133 ft 98 kts 175°
2026-04-26 02:26 -37.10811 174.96238 1188 ft 99 kts 180°
2026-04-26 02:27 -37.11495 174.96346 1245 ft 99 kts 180°
2026-04-26 02:27 -37.12188 174.96435 1327 ft 101 kts 179°
2026-04-26 02:27 -37.12871 174.96593 1392 ft 102 kts 165°
2026-04-26 02:27 -37.13535 174.96947 1465 ft 104 kts 164°
2026-04-26 02:28 -37.14205 174.97284 1533 ft 103 kts 163°
2026-04-26 02:28 -37.14848 174.97606 1610 ft 100 kts 164°
2026-04-26 02:28 -37.15497 174.97947 1685 ft 99 kts 163°
2026-04-26 02:28 -37.16119 174.98290 1757 ft 99 kts 162°
2026-04-26 02:29 -37.16688 174.98819 1818 ft 108 kts 128°
2026-04-26 02:29 -37.17037 174.99634 1910 ft 103 kts 123°
2026-04-26 02:29 -37.17365 175.00476 1991 ft 113 kts 120°
2026-04-26 02:29 -37.17710 175.01396 2077 ft 118 kts 122°
2026-04-26 02:30 -37.18070 175.02327 2155 ft 120 kts 123°
2026-04-26 02:30 -37.18441 175.03271 2239 ft 121 kts 122°
2026-04-26 02:30 -37.18821 175.04228 2320 ft 124 kts 122°
2026-04-26 02:30 -37.19152 175.05228 2398 ft 127 kts 107°
2026-04-26 02:31 -37.19317 175.06317 2479 ft 128 kts 105°
2026-04-26 02:31 -37.19418 175.07429 2547 ft 129 kts 92°
2026-04-26 02:31 -37.19360 175.08541 2623 ft 128 kts 81°
2026-04-26 02:31 -37.19136 175.09637 2704 ft 131 kts 74°
2026-04-26 02:32 -37.18818 175.10712 2779 ft 130 kts 70°
2026-04-26 02:32 -37.18504 175.11761 2848 ft 131 kts 72°
2026-04-26 02:32 -37.18186 175.12827 2922 ft 130 kts 71°
2026-04-26 02:32 -37.17865 175.13898 2992 ft 132 kts 70°
2026-04-26 02:33 -37.17546 175.14982 3062 ft 134 kts 72°
2026-04-26 02:33 -37.17225 175.16074 2895 ft 132 kts 71°
2026-04-26 02:33 -37.17027 175.16767 2769 ft 123 kts 71°
2026-04-26 02:33 -37.16751 175.17752 2534 ft 117 kts 72°
2026-04-26 02:34 -37.16460 175.18698 2293 ft 116 kts 62°
2026-04-26 02:34 -37.16043 175.19589 2060 ft 121 kts 59°
2026-04-26 02:34 -37.15608 175.20461 1835 ft 116 kts 57°
2026-04-26 02:34 -37.15024 175.21648 1530 ft 122 kts 59°
2026-04-26 02:35 -37.14719 175.22261 1383 ft 123 kts 58°
2026-04-26 02:35 -37.14272 175.23169 1159 ft 122 kts 60°
2026-04-26 02:35 -37.13854 175.24075 1123 ft 119 kts 63°
2026-04-26 02:35 -37.13443 175.24967 1130 ft 120 kts 62°
2026-04-26 02:36 -37.12962 175.25831 1127 ft 121 kts 46°
2026-04-26 02:36 -37.12366 175.26594 1125 ft 120 kts 46°
2026-04-26 02:36 -37.11789 175.27345 1123 ft 121 kts 46°
2026-04-26 02:36 -37.11204 175.28096 1125 ft 121 kts 47°
2026-04-26 02:37 -37.10628 175.28849 1109 ft 115 kts 47°
2026-04-26 02:37 -37.10107 175.29528 1062 ft 102 kts 46°
2026-04-26 02:37 -37.09626 175.30154 981 ft 98 kts 47°
2026-04-26 02:37 -37.09160 175.30752 930 ft 95 kts 44°
2026-04-26 02:38 -37.08536 175.31083 929 ft 102 kts
2026-04-26 02:38 -37.07815 175.31099 943 ft 106 kts 358°
2026-04-26 02:38 -37.07082 175.30981 944 ft 106 kts 348°
2026-04-26 02:38 -37.06362 175.30831 947 ft 106 kts 349°
2026-04-26 02:39 -37.05632 175.30676 948 ft 106 kts 348°
2026-04-26 02:39 -37.04899 175.30512 941 ft 108 kts 348°
2026-04-26 02:39 -37.04161 175.30348 942 ft 107 kts 348°
2026-04-26 02:39 -37.03424 175.30188 942 ft 108 kts 349°
2026-04-26 02:40 -37.02692 175.30028 941 ft 105 kts 349°
2026-04-26 02:40 -37.01970 175.29861 939 ft 106 kts 348°
2026-04-26 02:40 -37.01253 175.29654 936 ft 106 kts 342°
2026-04-26 02:40 -37.00535 175.29415 943 ft 108 kts 344°
2026-04-26 02:41 -36.99814 175.29181 940 ft 107 kts 344°
2026-04-26 02:41 -36.99095 175.28942 942 ft 107 kts 342°
2026-04-26 02:41 -36.98391 175.28666 939 ft 106 kts 330°
2026-04-26 02:41 -36.97792 175.28137 936 ft 105 kts 316°
2026-04-26 02:42 -36.97321 175.27437 934 ft 105 kts 306°
2026-04-26 02:42 -36.96862 175.26711 936 ft 106 kts 306°
2026-04-26 02:42 -36.96407 175.25989 937 ft 106 kts 306°
2026-04-26 02:42 -36.95947 175.25260 937 ft 106 kts 306°
2026-04-26 02:43 -36.95029 175.23822 940 ft 106 kts 307°
2026-04-26 02:43 -36.94575 175.23118 938 ft 103 kts 305°
2026-04-26 02:43 -36.94128 175.22434 932 ft 101 kts 306°
2026-04-26 02:44 -36.93691 175.21754 929 ft 100 kts 306°
2026-04-26 02:44 -36.93256 175.21076 931 ft 99 kts 306°
2026-04-26 02:44 -36.92826 175.20405 931 ft 99 kts 304°
2026-04-26 02:44 -36.92596 175.19618 931 ft 97 kts 280°
2026-04-26 02:45 -36.92571 175.18797 931 ft 94 kts 256°
2026-04-26 02:45 -36.92701 175.18010 934 ft 94 kts 257°
2026-04-26 02:45 -36.92829 175.17209 937 ft 94 kts 257°
2026-04-26 02:45 -36.92916 175.16394 944 ft 97 kts 272°
2026-04-26 02:46 -36.92811 175.15534 943 ft 101 kts 277°
2026-04-26 02:46 -36.92566 175.14706 946 ft 103 kts 298°
2026-04-26 02:46 -36.92195 175.13928 949 ft 106 kts 301°
2026-04-26 02:46 -36.91709 175.13223 946 ft 107 kts 311°
2026-04-26 02:47 -36.91211 175.12547 946 ft 105 kts 310°
2026-04-26 02:47 -36.90775 175.11827 945 ft 105 kts 300°
2026-04-26 02:47 -36.90378 175.11045 947 ft 107 kts 300°
2026-04-26 02:47 -36.89971 175.10255 950 ft 109 kts 300°
2026-04-26 02:48 -36.89553 175.09454 950 ft 111 kts 301°
2026-04-26 02:48 -36.89136 175.08645 951 ft 110 kts 300°
2026-04-26 02:48 -36.88738 175.07827 947 ft 110 kts 293°
2026-04-26 02:48 -36.88483 175.06927 948 ft 110 kts 286°
2026-04-26 02:49 -36.88243 175.06017 951 ft 111 kts 286°
2026-04-26 02:49 -36.87908 175.05162 952 ft 112 kts 300°
2026-04-26 02:49 -36.87477 175.04343 954 ft 113 kts 299°
2026-04-26 02:49 -36.87269 175.03414 946 ft 112 kts 270°
2026-04-26 02:50 -36.87289 175.02449 944 ft 110 kts 266°
2026-04-26 02:50 -36.87307 175.01487 947 ft 111 kts 267°
2026-04-26 02:50 -36.87333 175.00524 947 ft 110 kts 266°
2026-04-26 02:50 -36.87356 174.99574 947 ft 109 kts 266°
2026-04-26 02:51 -36.87187 174.98645 950 ft 112 kts 288°
2026-04-26 02:51 -36.86875 174.97753 953 ft 113 kts 297°
2026-04-26 02:51 -36.86461 174.96917 955 ft 113 kts 298°
2026-04-26 02:51 -36.86046 174.96087 954 ft 112 kts 298°
2026-04-26 02:52 -36.85645 174.95252 955 ft 113 kts 298°
2026-04-26 02:52 -36.85242 174.94404 954 ft 113 kts 294°
2026-04-26 02:52 -36.84972 174.93478 953 ft 113 kts 283°
2026-04-26 02:52 -36.84748 174.92535 952 ft 113 kts 283°
2026-04-26 02:53 -36.84532 174.91616 945 ft 106 kts 281°
2026-04-26 02:53 -36.84424 174.90735 939 ft 100 kts 275°
2026-04-26 02:53 -36.84333 174.89887 941 ft 97 kts 275°
2026-04-26 02:53 -36.84247 174.89072 940 ft 94 kts 274°
2026-04-26 02:54 -36.84168 174.88276 939 ft 92 kts 270°
2026-04-26 02:54 -36.84130 174.87479 939 ft 92 kts 270°
2026-04-26 02:54 -36.84097 174.86676 940 ft 93 kts 270°
2026-04-26 02:54 -36.84066 174.85877 940 ft 92 kts 270°
2026-04-26 02:55 -36.84029 174.85083 940 ft 92 kts 270°
2026-04-26 02:55 -36.83872 174.84341 942 ft 88 kts 303°
2026-04-26 02:55 -36.83329 174.83980 944 ft 90 kts 340°
2026-04-26 02:55 -36.82718 174.83972 958 ft 91 kts 21°
2026-04-26 02:56 -36.82242 174.84462 976 ft 89 kts 62°
2026-04-26 02:56 -36.81984 174.85144 1001 ft 86 kts 74°
2026-04-26 02:56 -36.81786 174.85850 1021 ft 87 kts 74°
2026-04-26 02:56 -36.81596 174.86583 1054 ft 90 kts 86°
2026-04-26 02:57 -36.81538 174.87366 1077 ft 93 kts 88°
2026-04-26 02:57 -36.81481 174.88181 1086 ft 97 kts 89°
2026-04-26 02:57 -36.81586 174.88998 1089 ft 96 kts 129°
2026-04-26 02:57 -36.82132 174.89412 1082 ft 93 kts 177°
2026-04-26 02:58 -36.82726 174.89218 1087 ft 90 kts 221°
2026-04-26 02:58 -36.83111 174.88591 1087 ft 92 kts 236°
2026-04-26 02:58 -36.83337 174.87853 1087 ft 90 kts 249°
2026-04-26 02:58 -36.83551 174.87109 1085 ft 91 kts 249°
2026-04-26 02:59 -36.83737 174.86357 1086 ft 91 kts 253°
2026-04-26 02:59 -36.83893 174.85603 1085 ft 90 kts 252°
2026-04-26 02:59 -36.84040 174.84844 1085 ft 90 kts 259°
2026-04-26 02:59 -36.84110 174.84080 1079 ft 88 kts 261°
2026-04-26 03:00 -36.84072 174.83304 1083 ft 94 kts 281°
2026-04-26 03:00 -36.83924 174.82495 1088 ft 97 kts 278°
2026-04-26 03:00 -36.83787 174.81675 1101 ft 96 kts 277°
2026-04-26 03:00 -36.83682 174.80861 1095 ft 93 kts 275°
2026-04-26 03:01 -36.83600 174.80067 1095 ft 91 kts 273°
2026-04-26 03:01 -36.83533 174.79283 1092 ft 91 kts 273°
2026-04-26 03:01 -36.83464 174.78484 1092 ft 94 kts 273°
2026-04-26 03:01 -36.83402 174.77674 1094 ft 94 kts 273°
2026-04-26 03:02 -36.83360 174.76879 1101 ft 90 kts 270°
2026-04-26 03:02 -36.83283 174.76095 1106 ft 97 kts 300°
2026-04-26 03:02 -36.82648 174.75893 1194 ft 110 kts 31°
2026-04-26 03:02 -36.82402 174.76712 1179 ft 106 kts 111°
2026-04-26 03:03 -36.82687 174.77535 1182 ft 102 kts 119°
2026-04-26 03:03 -36.82946 174.78369 1156 ft 105 kts 114°
2026-04-26 03:03 -36.83165 174.79246 1141 ft 108 kts 110°
2026-04-26 03:03 -36.83317 174.80139 1182 ft 106 kts 103°
2026-04-26 03:04 -36.83354 174.81052 1222 ft 106 kts 92°
2026-04-26 03:04 -36.83348 174.81992 1179 ft 108 kts 97°
2026-04-26 03:04 -36.83390 174.82912 1195 ft 107 kts 98°
2026-04-26 03:04 -36.83430 174.83864 1154 ft 112 kts 97°
2026-04-26 03:05 -36.83469 174.84838 1135 ft 110 kts 97°
2026-04-26 03:05 -36.83503 174.85780 1131 ft 107 kts 97°
2026-04-26 03:05 -36.83532 174.86708 1125 ft 107 kts 96°
2026-04-26 03:05 -36.83592 174.87628 1130 ft 107 kts 111°
2026-04-26 03:06 -36.83852 174.88502 1135 ft 108 kts 115°
2026-04-26 03:06 -36.84115 174.89389 1136 ft 110 kts 115°
2026-04-26 03:06 -36.84382 174.90288 1137 ft 111 kts 115°
2026-04-26 03:06 -36.84648 174.91179 1136 ft 111 kts 115°
2026-04-26 03:07 -36.84922 174.92087 1119 ft 112 kts 115°
2026-04-26 03:07 -36.85206 174.93007 1112 ft 114 kts 116°
2026-04-26 03:07 -36.85495 174.93913 1112 ft 111 kts 116°
2026-04-26 03:07 -36.85773 174.94795 1107 ft 108 kts 116°
2026-04-26 03:08 -36.86045 174.95664 1103 ft 107 kts 116°
2026-04-26 03:08 -36.86316 174.96529 1103 ft 107 kts 116°
2026-04-26 03:08 -36.86585 174.97406 1105 ft 109 kts 116°
2026-04-26 03:08 -36.86781 174.98324 1100 ft 112 kts 98°
2026-04-26 03:09 -36.86835 174.99282 1106 ft 110 kts 98°
2026-04-26 03:09 -36.86885 175.00236 1108 ft 110 kts 98°
2026-04-26 03:09 -36.86926 175.01190 1103 ft 109 kts 98°
2026-04-26 03:09 -36.87042 175.02073 1211 ft 98 kts 122°
2026-04-26 03:10 -36.87454 175.02706 1331 ft 92 kts 137°
2026-04-26 03:10 -36.87902 175.03261 1445 ft 88 kts 158°
2026-04-26 03:10 -36.88483 175.03559 1482 ft 95 kts 161°
2026-04-26 03:10 -36.89113 175.03890 1479 ft 100 kts 165°
2026-04-26 03:11 -36.89742 175.04255 1474 ft 104 kts 160°
2026-04-26 03:11 -36.90402 175.04646 1480 ft 108 kts 161°
2026-04-26 03:11 -36.91092 175.04993 1466 ft 104 kts 164°
2026-04-26 03:11 -36.91767 175.05335 1462 ft 104 kts 161°
2026-04-26 03:12 -36.92418 175.05677 1468 ft 101 kts 160°
2026-04-26 03:12 -36.93078 175.05997 1385 ft 104 kts 163°
2026-04-26 03:12 -36.93749 175.06325 1234 ft 99 kts 164°
2026-04-26 03:12 -36.94386 175.06584 1085 ft 95 kts 174°
2026-04-26 03:13 -36.95019 175.06639 1099 ft 90 kts 186°
2026-04-26 03:13 -36.95640 175.06612 1097 ft 90 kts 186°
2026-04-26 03:13 -36.96264 175.06579 1102 ft 90 kts 188°
2026-04-26 03:13 -36.96859 175.06327 1107 ft 93 kts 210°
2026-04-26 03:14 -36.97391 175.05859 1119 ft 97 kts 227°
2026-04-26 03:14 -36.97816 175.05175 1114 ft 101 kts 238°
2026-04-26 03:14 -36.98202 175.04442 1119 ft 100 kts 234°
2026-04-26 03:14 -36.98592 175.03747 1109 ft 94 kts 234°
2026-04-26 03:15 -36.98957 175.03098 1111 ft 93 kts 237°
2026-04-26 03:15 -36.99344 175.02439 1059 ft 96 kts 231°
2026-04-26 03:15 -36.99787 175.01793 970 ft 100 kts 230°
2026-04-26 03:15 -37.00237 175.01148 942 ft 98 kts 230°
2026-04-26 03:16 -37.00717 175.00506 809 ft 105 kts 227°
2026-04-26 03:16 -37.01158 174.99965 733 ft 69 kts 230°
2026-04-26 03:16 -37.01505 174.99500 563 ft 78 kts 231°
2026-04-26 03:16 -37.01879 174.99009 492 ft 79 kts 227°
2026-04-26 03:17 -37.02230 174.98537 303 ft 69 kts 227°
2026-04-26 03:17 -37.02544 174.98145 192 ft 55 kts 229°
2026-04-26 03:17 -37.02780 174.97845 117 ft 45 kts 230°
2026-04-26 03:17 -37.02984 174.97579 124 ft 50 kts 227°
2026-04-26 03:18 -37.03283 174.97205 224 ft 70 kts 227°
2026-04-26 03:18 -37.03671 174.96753 390 ft 81 kts 224°
2026-04-26 03:18 -37.04151 174.96304 531 ft 90 kts 209°
2026-04-26 03:18 -37.04750 174.96114 727 ft 94 kts 187°
2026-04-26 03:19 -37.05414 174.96083 903 ft 98 kts 186°
2026-04-26 03:19 -37.06114 174.96020 943 ft 100 kts 193°
2026-04-26 03:19 -37.06798 174.95986 940 ft 97 kts 183°
2026-04-26 03:19 -37.07254 174.95960 942 ft 97 kts 188°
2026-04-26 03:20 -37.07951 174.95934 946 ft 101 kts 187°
2026-04-26 03:20 -37.08656 174.95926 949 ft 102 kts 185°
2026-04-26 03:20 -37.09359 174.95931 955 ft 105 kts 186°
2026-04-26 03:20 -37.10085 174.95923 952 ft 102 kts 187°
2026-04-26 03:21 -37.10803 174.95937 951 ft 104 kts 186°
2026-04-26 03:21 -37.11516 174.95936 951 ft 102 kts 186°
2026-04-26 03:21 -37.12221 174.95925 959 ft 102 kts 186°
2026-04-26 03:21 -37.12936 174.95919 948 ft 103 kts 185°
2026-04-26 03:22 -37.13629 174.96066 1026 ft 104 kts 159°
2026-04-26 03:22 -37.14232 174.96531 1114 ft 100 kts 151°
2026-04-26 03:22 -37.14713 174.97156 1201 ft 98 kts 137°
2026-04-26 03:22 -37.15163 174.97763 1295 ft 93 kts 140°
2026-04-26 03:23 -37.15598 174.98361 1388 ft 93 kts 139°
2026-04-26 03:23 -37.16035 174.98966 1489 ft 94 kts 138°
2026-04-26 03:23 -37.16479 174.99560 1587 ft 91 kts 140°
2026-04-26 03:23 -37.16822 175.00224 1679 ft 92 kts 117°
2026-04-26 03:24 -37.17048 175.00944 1762 ft 87 kts 118°
2026-04-26 03:24 -37.17260 175.01644 1861 ft 85 kts 118°
2026-04-26 03:24 -37.17487 175.02376 1976 ft 98 kts 120°
2026-04-26 03:24 -37.17748 175.03231 2102 ft 108 kts 117°
2026-04-26 03:25 -37.18034 175.04121 2225 ft 115 kts 118°
2026-04-26 03:25 -37.18337 175.05079 2345 ft 120 kts 118°
2026-04-26 03:25 -37.18652 175.06062 2435 ft 121 kts 118°
2026-04-26 03:25 -37.18968 175.07041 2432 ft 123 kts 118°
2026-04-26 03:26 -37.19296 175.08032 2434 ft 124 kts 118°
2026-04-26 03:26 -37.19633 175.09037 2431 ft 127 kts 120°
2026-04-26 03:26 -37.20016 175.10034 2429 ft 126 kts 122°
2026-04-26 03:26 -37.20388 175.11007 2429 ft 122 kts 122°
2026-04-26 03:27 -37.20749 175.11955 2423 ft 117 kts 121°
2026-04-26 03:27 -37.21089 175.12843 2418 ft 110 kts 121°
2026-04-26 03:27 -37.21408 175.13691 2432 ft 103 kts 122°
2026-04-26 03:27 -37.21702 175.14392 2522 ft 81 kts 126°
2026-04-26 03:28 -37.21946 175.14984 2560 ft 79 kts 125°
2026-04-26 03:28 -37.22282 175.15594 2687 ft 88 kts 152°
2026-04-26 03:28 -37.22854 175.15774 2869 ft 86 kts 194°
2026-04-26 03:28 -37.23370 175.15434 2984 ft 81 kts 230°
2026-04-26 03:29 -37.23629 175.14811 2972 ft 79 kts 250°
2026-04-26 03:29 -37.23789 175.14238 2920 ft 62 kts 250°
2026-04-26 03:29 -37.23929 175.13815 2874 ft 43 kts 242°
2026-04-26 03:29 -37.24095 175.13374 2517 ft 71 kts 251°
2026-04-26 03:30 -37.24032 175.12734 2544 ft 87 kts 305°
2026-04-26 03:30 -37.23407 175.12641 2514 ft 104 kts 26°
2026-04-26 03:30 -37.22983 175.13359 2469 ft 106 kts 70°
2026-04-26 03:30 -37.22621 175.14107 2617 ft 97 kts 44°
2026-04-26 03:31 -37.22070 175.14600 2583 ft 91 kts 28°
2026-04-26 03:31 -37.21483 175.14876 2545 ft 95 kts
2026-04-26 03:31 -37.20813 175.14917 2527 ft 96 kts 356°
2026-04-26 03:31 -37.20163 175.14924 2522 ft 91 kts 351°
2026-04-26 03:32 -37.19573 175.15045 2521 ft 92 kts 44°
2026-04-26 03:32 -37.19355 175.15826 2424 ft 102 kts 79°
2026-04-26 03:32 -37.19169 175.16669 2388 ft 98 kts 78°
2026-04-26 03:32 -37.19009 175.17499 2290 ft 97 kts 80°
2026-04-26 03:33 -37.18827 175.18333 2194 ft 105 kts 78°
2026-04-26 03:33 -37.18640 175.19242 2107 ft 109 kts 79°
2026-04-26 03:33 -37.18460 175.20146 2019 ft 107 kts 78°
2026-04-26 03:33 -37.18282 175.21064 1918 ft 109 kts 78°
2026-04-26 03:34 -37.18108 175.21986 1828 ft 109 kts 79°
2026-04-26 03:34 -37.17911 175.22911 1729 ft 110 kts 73°
2026-04-26 03:34 -37.17645 175.23797 1621 ft 107 kts 67°
2026-04-26 03:34 -37.17331 175.24633 1516 ft 109 kts 58°
2026-04-26 03:35 -37.16919 175.25463 1423 ft 113 kts 56°
2026-04-26 03:35 -37.16496 175.26314 1326 ft 115 kts 57°
2026-04-26 03:35 -37.16079 175.27155 1238 ft 112 kts 58°
2026-04-26 03:35 -37.15664 175.27969 1124 ft 111 kts 57°
2026-04-26 03:36 -37.15249 175.28773 1021 ft 111 kts 56°
2026-04-26 03:36 -37.14806 175.29602 991 ft 116 kts 54°
2026-04-26 03:36 -37.14200 175.30208 980 ft 111 kts 17°
2026-04-26 03:36 -37.13508 175.30514 983 ft 102 kts 18°
2026-04-26 03:37 -37.12830 175.30652 983 ft 98 kts
2026-04-26 03:37 -37.12143 175.30640 986 ft 98 kts 355°
2026-04-26 03:37 -37.11440 175.30605 992 ft 104 kts 355°
2026-04-26 03:37 -37.10711 175.30607 998 ft 105 kts
2026-04-26 03:38 -37.09989 175.30782 1000 ft 106 kts
2026-04-26 03:38 -37.09256 175.30954 998 ft 107 kts
2026-04-26 03:38 -37.08528 175.31030 994 ft 103 kts 357°
2026-04-26 03:38 -37.07816 175.31046 991 ft 101 kts 358°
2026-04-26 03:39 -37.07123 175.31031 984 ft 98 kts 349°
2026-04-26 03:39 -37.06454 175.30906 988 ft 101 kts 355°
2026-04-26 03:39 -37.05734 175.30854 996 ft 106 kts 355°
2026-04-26 03:39 -37.04991 175.30798 1000 ft 107 kts 351°
2026-04-26 03:40 -37.04262 175.30666 1002 ft 105 kts 347°
2026-04-26 03:40 -37.03555 175.30502 1000 ft 104 kts 343°
2026-04-26 03:40 -37.02847 175.30310 1000 ft 102 kts 343°
2026-04-26 03:40 -37.02147 175.30119 996 ft 103 kts 343°
2026-04-26 03:41 -37.01451 175.29935 992 ft 102 kts 345°
2026-04-26 03:41 -37.00759 175.29736 992 ft 102 kts 342°
2026-04-26 03:41 -37.00088 175.29466 993 ft 100 kts 337°
2026-04-26 03:41 -36.99435 175.29163 988 ft 100 kts 327°
2026-04-26 03:42 -36.98843 175.28701 986 ft 101 kts 326°
2026-04-26 03:42 -36.98250 175.28235 990 ft 101 kts 320°
2026-04-26 03:42 -36.97704 175.27672 989 ft 102 kts 314°
2026-04-26 03:42 -36.97189 175.27040 998 ft 105 kts 313°
2026-04-26 03:43 -36.96657 175.26423 996 ft 103 kts 314°
2026-04-26 03:43 -36.96143 175.25801 1000 ft 103 kts 308°
2026-04-26 03:43 -36.95688 175.25130 996 ft 99 kts 303°
2026-04-26 03:43 -36.95282 175.24449 993 ft 97 kts 302°
2026-04-26 03:44 -36.94872 175.23775 990 ft 99 kts 303°
2026-04-26 03:44 -36.94534 175.23046 986 ft 96 kts 294°
2026-04-26 03:44 -36.94222 175.22317 986 ft 95 kts 294°
2026-04-26 03:44 -36.93899 175.21592 987 ft 96 kts 294°
2026-04-26 03:45 -36.93524 175.20897 996 ft 97 kts 302°
2026-04-26 03:45 -36.93129 175.20202 992 ft 97 kts 298°
2026-04-26 03:45 -36.92814 175.19456 995 ft 97 kts 288°
2026-04-26 03:45 -36.92667 175.18642 990 ft 95 kts 277°
2026-04-26 03:46 -36.92553 175.17844 997 ft 91 kts 277°
2026-04-26 03:46 -36.92436 175.17057 993 ft 93 kts 277°
2026-04-26 03:46 -36.92239 175.16303 992 ft 91 kts 289°
2026-04-26 03:47 -36.91740 175.14852 991 ft 94 kts 288°
2026-04-26 03:47 -36.91483 175.14080 998 ft 97 kts 289°
2026-04-26 03:47 -36.91273 175.13281 997 ft 95 kts 270°
2026-04-26 03:47 -36.91404 175.12530 986 ft 85 kts 240°
2026-04-26 03:48 -36.91713 175.11931 987 ft 79 kts 236°
2026-04-26 03:48 -36.92004 175.11394 991 ft 81 kts 234°
2026-04-26 03:48 -36.92359 175.10767 1002 ft 92 kts 231°
2026-04-26 03:48 -36.92812 175.10161 1008 ft 99 kts 229°
2026-04-26 03:49 -36.93307 175.09548 1007 ft 100 kts 221°
2026-04-26 03:49 -36.93841 175.08991 1005 ft 101 kts 221°
2026-04-26 03:49 -36.94367 175.08416 1000 ft 101 kts 227°
2026-04-26 03:49 -36.94853 175.07766 1004 ft 103 kts 227°
2026-04-26 03:50 -36.95420 175.07205 1002 ft 104 kts 217°
2026-04-26 03:50 -36.96020 175.06718 1004 ft 100 kts 214°
2026-04-26 03:50 -36.96599 175.06249 1003 ft 98 kts 216°
2026-04-26 03:50 -36.97181 175.05777 1005 ft 100 kts 216°
2026-04-26 03:51 -36.97704 175.05218 1004 ft 100 kts 229°
2026-04-26 03:51 -36.98137 175.04539 1002 ft 98 kts 238°
2026-04-26 03:51 -36.98505 175.03866 995 ft 93 kts 234°
2026-04-26 03:51 -36.98888 175.03216 1003 ft 95 kts 234°
2026-04-26 03:52 -36.99255 175.02580 998 ft 86 kts 236°
2026-04-26 03:52 -36.99606 175.01996 986 ft 80 kts 233°
2026-04-26 03:52 -36.99925 175.01455 931 ft 78 kts 229°
2026-04-26 03:52 -37.00325 175.00965 835 ft 81 kts 226°
2026-04-26 03:53 -37.00720 175.00472 732 ft 80 kts 227°
2026-04-26 03:53 -37.01114 174.99964 650 ft 83 kts 229°
2026-04-26 03:53 -37.01515 174.99438 612 ft 83 kts 230°
2026-04-26 03:53 -37.01911 174.98925 444 ft 79 kts 228°
2026-04-26 03:54 -37.02265 174.98494 320 ft 69 kts 232°
2026-04-26 03:54 -37.02601 174.98074 167 ft 65 kts 227°
2026-04-26 03:54 -37.02880 174.97714 115 ft 49 kts 230°
2026-04-26 03:54 -37.03070 174.97467 113 ft 26 kts 225°
2026-04-26 03:55 -37.03140 174.97401 114 ft 0 kts 200°
2026-04-26 03:55 -37.03149 174.97404 114 ft 6 kts 136°
2026-04-26 03:55 -37.03167 174.97435 112 ft 2 kts 107°
2026-04-26 03:55 -37.03148 174.97470 112 ft 6 kts 46°
2026-04-26 03:56 -37.03119 174.97505 111 ft 5 kts 44°
2026-04-26 03:56 -37.03094 174.97539 111 ft 5 kts 45°
2026-04-26 03:56 -37.03071 174.97568 111 ft 4 kts 44°
2026-04-26 03:56 -37.03050 174.97591 112 ft 4 kts 45°
2026-04-26 03:57 -37.03033 174.97615 112 ft 5 kts 49°
2026-04-26 03:57 -37.03041 174.97651 111 ft 6 kts 136°
2026-04-26 03:57 -37.03067 174.97684 111 ft 5 kts 132°
2026-04-26 03:57 -37.03089 174.97713 111 ft 5 kts 134°
2026-04-26 03:58 -37.03114 174.97745 111 ft 6 kts 130°
2026-04-26 03:58 -37.03089 174.97804 111 ft 9 kts 45°
2026-04-26 03:58 -37.03061 174.97848 111 ft 5 kts 128°
2026-04-26 03:58 -37.03093 174.97902 111 ft 8 kts 99°
2026-04-26 03:59 -37.03117 174.97931 111 ft 0 kts 221°